createdAt,value
2022-10-16T00:01:31.573Z,85.54
2022-10-16T00:04:02.468Z,85.62
2022-10-16T00:06:33.007Z,85.52
2022-10-16T00:09:01.884Z,85.57
2022-10-16T00:11:34.126Z,85.57
2022-10-16T00:14:04.351Z,85.64
2022-10-16T00:16:32.894Z,85.61
2022-10-16T00:19:01.227Z,85.55
2022-10-16T00:21:32.334Z,85.82
2022-10-16T00:24:03.295Z,85.58
2022-10-16T00:26:33.802Z,85.90
2022-10-16T00:29:02.502Z,85.87
2022-10-16T00:31:31.763Z,86.02
2022-10-16T00:34:02.579Z,85.98
2022-10-16T00:36:33.147Z,86.13
2022-10-16T00:39:02.794Z,86.06
2022-10-16T00:41:32.772Z,85.89
2022-10-16T00:44:02.731Z,86.07
2022-10-16T00:46:40.189Z,86.16
2022-10-16T00:49:11.107Z,85.90
2022-10-16T00:51:42.907Z,85.90
2022-10-16T00:54:15.519Z,86.04
2022-10-16T00:56:45.468Z,85.84
2022-10-16T00:59:18.095Z,85.95
2022-10-16T01:01:46.456Z,85.89
2022-10-16T01:04:15.092Z,86.23
2022-10-16T01:06:51.327Z,86.14
2022-10-16T01:09:25.797Z,86.19
2022-10-16T01:12:03.112Z,86.16
2022-10-16T01:14:40.455Z,86.03
2022-10-16T01:17:14.113Z,85.98
2022-10-16T01:20:04.947Z,85.82
2022-10-16T01:22:45.658Z,85.89
2022-10-16T01:25:21.256Z,86.21
2022-10-16T01:27:51.895Z,86.19
2022-10-16T01:30:24.899Z,85.99
2022-10-16T01:32:59.344Z,86.06
2022-10-16T01:35:31.215Z,85.92
2022-10-16T01:38:05.133Z,86.06
2022-10-16T01:40:36.463Z,85.86
2022-10-16T01:43:10.081Z,85.73
2022-10-16T01:45:38.952Z,85.86
2022-10-16T01:48:10.646Z,86.01
2022-10-16T01:50:41.828Z,85.93
2022-10-16T01:53:14.879Z,86.01
2022-10-16T01:55:48.297Z,86.20
2022-10-16T01:58:18.021Z,86.20
2022-10-16T02:00:49.023Z,85.99
2022-10-16T02:03:20.617Z,86.22
2022-10-16T02:05:53.644Z,85.97
2022-10-16T02:08:23.338Z,86.01
2022-10-16T02:10:52.117Z,86.12
2022-10-16T02:13:25.887Z,86.10
2022-10-16T02:15:54.241Z,86.35
2022-10-16T02:18:22.916Z,86.21
2022-10-16T02:20:57.591Z,86.00
2022-10-16T02:23:36.108Z,85.97
2022-10-16T02:26:08.251Z,86.20
2022-10-16T02:28:42.837Z,86.01
2022-10-16T02:31:13.948Z,86.17
2022-10-16T02:33:45.927Z,86.22
2022-10-16T02:36:14.773Z,86.34
2022-10-16T02:38:43.889Z,86.00
2022-10-16T02:41:12.356Z,86.28
2022-10-16T02:43:42.109Z,86.08
2022-10-16T02:46:10.539Z,86.30
2022-10-16T02:48:40.213Z,85.79
2022-10-16T02:51:08.659Z,85.95
2022-10-16T02:53:36.988Z,85.88
2022-10-16T02:56:05.709Z,85.91
2022-10-16T02:58:34.147Z,85.77
2022-10-16T03:01:03.928Z,85.97
2022-10-16T03:03:32.259Z,86.12
2022-10-16T03:06:00.579Z,86.27
2022-10-16T03:08:28.927Z,85.91
2022-10-16T03:10:57.430Z,85.92
2022-10-16T03:13:25.751Z,86.05
2022-10-16T03:15:54.075Z,85.96
2022-10-16T03:18:23.771Z,85.98
2022-10-16T03:20:52.323Z,85.98
2022-10-16T03:23:20.720Z,86.11
2022-10-16T03:25:49.244Z,85.91
2022-10-16T03:28:17.643Z,85.97
2022-10-16T03:30:46.036Z,85.76
2022-10-16T03:33:14.461Z,85.67
2022-10-16T03:35:44.195Z,85.61
2022-10-16T03:38:12.471Z,85.79
2022-10-16T03:40:40.912Z,85.51
2022-10-16T03:43:09.266Z,85.97
2022-10-16T03:45:37.645Z,85.73
2022-10-16T03:48:06.198Z,85.51
2022-10-16T03:50:34.717Z,85.59
2022-10-16T03:53:04.546Z,85.74
2022-10-16T03:55:32.887Z,85.58
2022-10-16T03:58:01.583Z,85.75
2022-10-16T04:00:29.947Z,85.61
2022-10-16T04:02:58.247Z,85.62
2022-10-16T04:05:26.600Z,85.44
2022-10-16T04:07:56.023Z,85.72
2022-10-16T04:10:25.839Z,85.55
2022-10-16T04:12:55.620Z,85.57
2022-10-16T04:15:24.567Z,85.75
2022-10-16T04:17:53.817Z,85.38
2022-10-16T04:20:22.346Z,85.57
2022-10-16T04:22:50.781Z,85.48
2022-10-16T04:25:19.116Z,85.60
2022-10-16T04:27:48.767Z,85.37
2022-10-16T04:30:17.149Z,85.46
2022-10-16T04:32:45.495Z,85.63
2022-10-16T04:35:13.837Z,85.50
2022-10-16T04:37:42.261Z,85.54
2022-10-16T04:40:11.203Z,85.52
2022-10-16T04:42:39.586Z,85.85
2022-10-16T04:45:13.370Z,85.60
2022-10-16T04:47:44.717Z,85.42
2022-10-16T04:50:13.406Z,85.49
2022-10-16T04:52:41.769Z,85.47
2022-10-16T04:55:10.608Z,85.34
2022-10-16T04:57:38.947Z,85.34
2022-10-16T05:00:10.111Z,85.35
2022-10-16T05:02:38.560Z,85.32
2022-10-16T05:05:07.926Z,85.49
2022-10-16T05:07:36.293Z,85.39
2022-10-16T05:10:04.990Z,85.56
2022-10-16T05:12:33.798Z,85.60
2022-10-16T05:15:02.109Z,85.31
2022-10-16T05:17:31.786Z,85.57
2022-10-16T05:20:00.586Z,85.22
2022-10-16T05:22:28.906Z,85.35
2022-10-16T05:24:57.272Z,85.46
2022-10-16T05:27:25.828Z,85.33
2022-10-16T05:29:54.393Z,85.20
2022-10-16T05:32:22.845Z,85.25
2022-10-16T05:34:53.023Z,85.50
2022-10-16T05:37:21.319Z,85.05
2022-10-16T05:39:49.715Z,85.31
2022-10-16T05:42:18.619Z,85.20
2022-10-16T05:44:46.995Z,84.82
2022-10-16T05:47:15.993Z,84.60
2022-10-16T05:49:44.372Z,84.96
2022-10-16T05:52:14.077Z,84.44
2022-10-16T05:54:42.440Z,84.37
2022-10-16T05:57:10.848Z,84.60
2022-10-16T05:59:40.055Z,84.48
2022-10-16T06:02:10.831Z,84.52
2022-10-16T06:04:39.180Z,84.52
2022-10-16T06:07:07.773Z,84.40
2022-10-16T06:09:37.497Z,84.47
2022-10-16T06:12:06.172Z,84.26
2022-10-16T06:14:34.556Z,84.41
2022-10-16T06:17:02.903Z,84.29
2022-10-16T06:19:32.495Z,84.39
2022-10-16T06:22:01.789Z,84.34
2022-10-16T06:24:30.104Z,84.34
2022-10-16T06:26:59.859Z,83.98
2022-10-16T06:29:28.179Z,84.23
2022-10-16T06:31:56.539Z,84.35
2022-10-16T06:34:25.120Z,84.33
2022-10-16T06:36:53.520Z,84.38
2022-10-16T06:39:21.852Z,84.17
2022-10-16T06:41:50.193Z,84.12
2022-10-16T06:44:21.106Z,84.18
2022-10-16T06:46:49.436Z,84.14
2022-10-16T06:49:22.546Z,83.88
2022-10-16T06:51:50.989Z,83.81
2022-10-16T06:54:19.460Z,83.85
2022-10-16T06:56:47.851Z,83.61
2022-10-16T06:59:16.182Z,83.68
2022-10-16T07:01:45.914Z,83.38
2022-10-16T07:04:14.355Z,83.49
2022-10-16T07:06:42.731Z,83.38
2022-10-16T07:09:12.452Z,83.56
2022-10-16T07:11:42.255Z,83.46
2022-10-16T07:14:17.864Z,83.34
2022-10-16T07:16:47.943Z,83.27
2022-10-16T07:19:19.178Z,83.59
2022-10-16T07:21:47.636Z,83.37
2022-10-16T07:24:18.044Z,83.55
2022-10-16T07:26:47.626Z,83.46
2022-10-16T07:29:18.361Z,83.36
2022-10-16T07:31:48.983Z,83.18
2022-10-16T07:34:19.153Z,82.88
2022-10-16T07:36:50.000Z,82.98
2022-10-16T07:39:18.551Z,82.63
2022-10-16T07:41:46.917Z,82.39
2022-10-16T07:44:15.413Z,82.08
2022-10-16T07:46:43.931Z,82.08
2022-10-16T07:49:13.708Z,82.00
2022-10-16T07:51:42.163Z,82.04
2022-10-16T07:54:10.930Z,81.79
2022-10-16T07:56:42.890Z,81.62
2022-10-16T07:59:12.750Z,81.60
2022-10-16T08:01:41.248Z,81.44
2022-10-16T08:04:10.403Z,81.47
2022-10-16T08:06:42.071Z,81.31
2022-10-16T08:09:10.935Z,81.33
2022-10-16T08:11:39.368Z,81.15
2022-10-16T08:14:07.906Z,81.04
2022-10-16T08:16:36.367Z,80.99
2022-10-16T08:19:05.201Z,80.74
2022-10-16T08:21:33.612Z,80.57
2022-10-16T08:24:03.354Z,80.61
2022-10-16T08:26:31.892Z,80.38
2022-10-16T08:29:00.328Z,80.31
2022-10-16T08:31:28.856Z,80.03
2022-10-16T08:33:57.302Z,79.87
2022-10-16T08:36:25.709Z,79.75
2022-10-16T08:38:55.568Z,79.39
2022-10-16T08:41:39.888Z,79.15
2022-10-16T08:44:42.695Z,78.85
2022-10-16T08:47:19.451Z,79.01
2022-10-16T08:50:02.357Z,78.55
2022-10-16T08:52:35.016Z,78.69
2022-10-16T08:55:03.962Z,78.54
2022-10-16T08:57:33.710Z,78.32
2022-10-16T09:00:11.396Z,78.23
2022-10-16T09:02:44.417Z,78.13
2022-10-16T09:05:39.546Z,77.51
2022-10-16T09:08:17.175Z,77.70
2022-10-16T09:10:58.860Z,77.51
2022-10-16T09:13:31.667Z,77.38
2022-10-16T09:16:12.023Z,76.96
2022-10-16T09:18:46.979Z,76.89
2022-10-16T09:21:20.182Z,76.70
2022-10-16T09:23:49.515Z,76.46
2022-10-16T09:26:20.573Z,76.32
2022-10-16T09:28:50.506Z,76.07
2022-10-16T09:31:21.630Z,75.96
2022-10-16T09:33:55.442Z,75.73
2022-10-16T09:36:26.670Z,75.43
2022-10-16T09:39:06.242Z,75.09
2022-10-16T09:41:36.823Z,75.00
2022-10-16T09:44:18.228Z,74.98
2022-10-16T09:46:46.612Z,74.89
2022-10-16T09:49:25.578Z,74.77
2022-10-16T09:52:04.652Z,75.03
2022-10-16T09:54:33.176Z,74.84
2022-10-16T09:57:08.548Z,74.46
2022-10-16T09:59:48.508Z,74.38
2022-10-16T10:02:18.832Z,74.51
2022-10-16T10:04:52.356Z,74.42
2022-10-16T10:07:26.849Z,73.86
2022-10-16T10:09:57.188Z,73.81
2022-10-16T10:12:28.430Z,73.75
2022-10-16T10:15:00.618Z,73.26
2022-10-16T10:17:30.482Z,73.07
2022-10-16T10:20:01.613Z,72.99
2022-10-16T10:22:41.536Z,72.51
2022-10-16T10:25:43.383Z,72.14
2022-10-16T10:28:24.677Z,72.14
2022-10-16T10:31:02.542Z,71.97
2022-10-16T10:33:39.440Z,71.64
2022-10-16T10:36:18.708Z,71.49
2022-10-16T10:38:52.655Z,71.15
2022-10-16T10:41:37.600Z,70.95
2022-10-16T10:44:18.224Z,71.11
2022-10-16T10:46:52.796Z,70.73
2022-10-16T10:49:35.314Z,70.48
2022-10-16T10:52:15.393Z,70.03
2022-10-16T10:54:53.681Z,69.60
2022-10-16T10:57:28.030Z,69.29
2022-10-16T11:00:21.385Z,68.73
2022-10-16T11:02:59.595Z,69.09
2022-10-16T11:05:42.857Z,68.58
2022-10-16T11:08:18.401Z,68.79
2022-10-16T11:10:55.659Z,68.44
2022-10-16T11:13:34.540Z,67.92
2022-10-16T11:16:10.357Z,67.75
2022-10-16T11:18:50.467Z,67.22
2022-10-16T11:21:26.076Z,67.35
2022-10-16T11:24:02.283Z,67.07
2022-10-16T11:26:35.072Z,66.77
2022-10-16T11:29:07.000Z,66.50
2022-10-16T11:31:40.416Z,66.33
2022-10-16T11:34:19.672Z,66.10
2022-10-16T11:36:55.475Z,65.90
2022-10-16T11:39:26.813Z,65.78
2022-10-16T11:41:57.911Z,65.48
2022-10-16T11:44:48.561Z,64.50
2022-10-16T11:47:53.803Z,64.82
2022-10-16T11:50:25.321Z,64.90
2022-10-16T11:53:03.657Z,64.47
2022-10-16T11:55:36.880Z,64.13
2022-10-16T11:58:10.375Z,63.80
2022-10-16T12:00:45.640Z,63.35
2022-10-16T12:03:22.275Z,63.39
2022-10-16T12:06:04.049Z,63.04
2022-10-16T12:08:35.532Z,63.06
2022-10-16T12:11:12.263Z,62.66
2022-10-16T12:13:43.327Z,62.69
2022-10-16T12:16:29.530Z,62.31
2022-10-16T12:19:15.903Z,61.67
2022-10-16T12:21:46.813Z,62.12
2022-10-16T12:24:29.935Z,61.35
2022-10-16T12:26:58.600Z,61.59
2022-10-16T12:29:35.347Z,61.05
2022-10-16T12:32:07.399Z,60.63
2022-10-16T12:34:42.547Z,60.19
2022-10-16T12:37:17.507Z,59.77
2022-10-16T12:39:45.936Z,59.52
2022-10-16T12:42:35.471Z,59.43
2022-10-16T12:45:15.237Z,59.71
2022-10-16T12:47:51.729Z,58.92
2022-10-16T12:50:41.767Z,58.32
2022-10-16T12:53:22.343Z,58.61
2022-10-16T12:56:00.459Z,58.41
2022-10-16T12:58:52.212Z,58.54
2022-10-16T13:01:30.976Z,58.51
2022-10-16T13:04:40.019Z,58.10
2022-10-16T13:07:21.969Z,58.42
2022-10-16T13:10:03.815Z,58.21
2022-10-16T13:12:54.303Z,57.39
2022-10-16T13:15:33.859Z,57.82
2022-10-16T13:18:12.348Z,57.68
2022-10-16T13:20:57.713Z,57.45
2022-10-16T13:23:35.129Z,57.66
2022-10-16T13:26:19.720Z,56.96
2022-10-16T13:28:48.341Z,56.91
2022-10-16T13:31:21.876Z,56.95
2022-10-16T13:33:55.653Z,56.69
2022-10-16T13:36:25.677Z,56.68
2022-10-16T13:39:08.592Z,56.20
2022-10-16T13:41:38.430Z,56.28
2022-10-16T13:44:14.365Z,55.95
2022-10-16T13:46:42.808Z,56.04
2022-10-16T13:49:16.077Z,56.10
2022-10-16T13:51:56.636Z,55.72
2022-10-16T13:54:25.891Z,55.68
2022-10-16T13:57:03.098Z,54.86
2022-10-16T13:59:39.903Z,54.80
2022-10-16T14:02:20.703Z,54.59
2022-10-16T14:04:50.295Z,54.86
2022-10-16T14:07:25.560Z,55.00
2022-10-16T14:09:55.677Z,54.53
2022-10-16T14:12:28.104Z,54.11
2022-10-16T14:14:59.478Z,53.82
2022-10-16T14:17:29.599Z,53.75
2022-10-16T14:20:02.445Z,54.13
2022-10-16T14:22:35.677Z,54.65
2022-10-16T14:25:27.482Z,54.98
2022-10-16T14:28:05.808Z,54.60
2022-10-16T14:30:36.136Z,55.10
2022-10-16T14:33:06.657Z,54.94
2022-10-16T14:35:37.128Z,54.72
2022-10-16T14:38:07.939Z,54.96
2022-10-16T14:40:39.032Z,55.02
2022-10-16T14:43:08.736Z,54.90
2022-10-16T14:45:37.946Z,54.82
2022-10-16T14:48:19.679Z,54.21
2022-10-16T14:50:48.776Z,53.73
2022-10-16T14:53:17.344Z,53.25
2022-10-16T14:55:46.294Z,52.90
2022-10-16T14:58:19.828Z,52.31
2022-10-16T15:00:48.378Z,52.09
2022-10-16T15:03:16.772Z,51.56
2022-10-16T15:05:45.179Z,51.38
2022-10-16T15:08:14.086Z,51.11
2022-10-16T15:10:44.997Z,50.98
2022-10-16T15:13:17.418Z,50.67
2022-10-16T15:15:47.648Z,50.58
2022-10-16T15:18:21.045Z,50.76
2022-10-16T15:20:51.550Z,50.95
2022-10-16T15:23:21.988Z,50.87
2022-10-16T15:25:52.164Z,50.78
2022-10-16T15:28:23.632Z,50.37
2022-10-16T15:30:53.792Z,50.58
2022-10-16T15:33:24.616Z,50.89
2022-10-16T15:35:54.068Z,51.28
2022-10-16T15:38:24.267Z,51.22
2022-10-16T15:40:52.750Z,51.48
2022-10-16T15:43:22.616Z,51.42
2022-10-16T15:46:02.046Z,51.40
2022-10-16T15:48:31.265Z,51.89
2022-10-16T15:50:59.620Z,52.07
2022-10-16T15:53:28.075Z,52.25
2022-10-16T15:55:56.452Z,51.98
2022-10-16T15:58:26.503Z,52.11
2022-10-16T16:00:58.105Z,52.29
2022-10-16T16:03:26.440Z,52.63
2022-10-16T16:05:55.004Z,52.68
2022-10-16T16:08:23.433Z,53.02
2022-10-16T16:11:00.073Z,53.20
2022-10-16T16:13:29.917Z,53.63
2022-10-16T16:15:58.480Z,54.76
2022-10-16T16:18:26.976Z,55.47
2022-10-16T16:20:55.734Z,56.32
2022-10-16T16:23:24.241Z,56.70
2022-10-16T16:26:06.539Z,57.62
2022-10-16T16:28:36.822Z,58.11
2022-10-16T16:31:05.861Z,58.93
2022-10-16T16:33:34.526Z,58.71
2022-10-16T16:36:05.342Z,58.67
2022-10-16T16:38:35.398Z,58.93
2022-10-16T16:41:13.493Z,59.36
2022-10-16T16:43:43.601Z,59.61
2022-10-16T16:46:12.668Z,60.15
2022-10-16T16:48:41.398Z,60.83
2022-10-16T16:51:16.136Z,61.41
2022-10-16T16:53:45.022Z,61.91
2022-10-16T16:56:13.950Z,62.02
2022-10-16T16:58:43.773Z,62.06
2022-10-16T17:01:20.986Z,62.50
2022-10-16T17:03:52.614Z,62.88
2022-10-16T17:06:23.121Z,63.01
2022-10-16T17:08:52.157Z,63.13
2022-10-16T17:11:22.902Z,63.40
2022-10-16T17:13:56.407Z,63.63
2022-10-16T17:16:28.122Z,63.66
2022-10-16T17:18:56.555Z,63.73
2022-10-16T17:21:26.812Z,63.88
2022-10-16T17:23:55.186Z,64.36
2022-10-16T17:26:23.590Z,64.91
2022-10-16T17:28:56.603Z,65.07
2022-10-16T17:31:27.767Z,65.07
2022-10-16T17:33:56.647Z,65.48
2022-10-16T17:36:25.606Z,65.71
2022-10-16T17:38:54.041Z,65.94
2022-10-16T17:41:25.228Z,66.35
2022-10-16T17:43:54.969Z,66.34
2022-10-16T17:46:24.914Z,66.73
2022-10-16T17:48:55.747Z,66.81
2022-10-16T17:51:27.134Z,66.97
2022-10-16T17:53:57.495Z,67.05
2022-10-16T17:56:29.391Z,67.25
2022-10-16T17:59:01.747Z,67.45
2022-10-16T18:01:32.919Z,67.67
2022-10-16T18:04:04.740Z,67.95
2022-10-16T18:06:33.832Z,68.22
2022-10-16T18:09:03.945Z,68.42
2022-10-16T18:11:33.110Z,68.77
2022-10-16T18:14:03.345Z,68.62
2022-10-16T18:16:32.563Z,68.85
2022-10-16T18:19:01.132Z,68.80
2022-10-16T18:21:30.030Z,68.54
2022-10-16T18:24:00.099Z,68.23
2022-10-16T18:26:29.364Z,68.13
2022-10-16T18:28:59.423Z,67.95
2022-10-16T18:31:29.948Z,67.94
2022-10-16T18:33:59.031Z,67.83
2022-10-16T18:36:30.624Z,67.81
2022-10-16T18:39:00.154Z,67.94
2022-10-16T18:41:29.179Z,68.11
2022-10-16T18:43:57.741Z,68.34
2022-10-16T18:46:27.622Z,68.40
2022-10-16T18:49:00.449Z,68.40
2022-10-16T18:51:30.582Z,68.61
2022-10-16T18:54:01.019Z,68.60
2022-10-16T18:56:31.468Z,68.77
2022-10-16T18:59:01.368Z,68.89
2022-10-16T19:01:32.549Z,68.93
2022-10-16T19:04:03.888Z,68.99
2022-10-16T19:06:36.011Z,69.20
2022-10-16T19:09:05.396Z,69.36
2022-10-16T19:11:39.163Z,69.50
2022-10-16T19:14:07.895Z,69.45
2022-10-16T19:16:37.368Z,69.63
2022-10-16T19:19:09.411Z,69.77
2022-10-16T19:21:39.984Z,69.82
2022-10-16T19:24:09.054Z,69.94
2022-10-16T19:26:39.626Z,69.97
2022-10-16T19:29:10.879Z,70.10
2022-10-16T19:31:39.996Z,69.91
2022-10-16T19:34:11.550Z,69.98
2022-10-16T19:36:40.897Z,70.02
2022-10-16T19:39:13.469Z,70.16
2022-10-16T19:41:42.087Z,70.05
2022-10-16T19:44:13.292Z,70.04
2022-10-16T19:46:41.847Z,70.22
2022-10-16T19:49:13.484Z,70.27
2022-10-16T19:51:41.796Z,70.28
2022-10-16T19:54:14.643Z,70.27
2022-10-16T19:56:43.641Z,70.21
2022-10-16T19:59:16.369Z,70.33
2022-10-16T20:01:45.329Z,70.57
2022-10-16T20:04:15.444Z,70.49
2022-10-16T20:06:43.812Z,70.41
2022-10-16T20:09:12.125Z,70.48
2022-10-16T20:11:40.540Z,70.69
2022-10-16T20:14:09.045Z,70.71
2022-10-16T20:16:38.573Z,70.73
2022-10-16T20:19:07.077Z,70.71
2022-10-16T20:21:36.893Z,70.94
2022-10-16T20:24:06.585Z,71.04
2022-10-16T20:26:35.272Z,71.04
2022-10-16T20:29:05.248Z,71.10
2022-10-16T20:31:34.997Z,71.00
2022-10-16T20:34:05.994Z,70.91
2022-10-16T20:36:37.458Z,70.94
2022-10-16T20:39:06.822Z,70.95
2022-10-16T20:41:35.899Z,70.90
2022-10-16T20:44:04.776Z,71.06
2022-10-16T20:46:33.308Z,70.87
2022-10-16T20:49:10.873Z,71.01
2022-10-16T20:51:49.760Z,71.19
2022-10-16T20:54:18.475Z,71.33
2022-10-16T20:56:46.839Z,71.46
2022-10-16T20:59:15.158Z,71.57
2022-10-16T21:01:43.652Z,71.92
2022-10-16T21:04:12.195Z,72.12
2022-10-16T21:06:40.777Z,72.16
2022-10-16T21:09:10.760Z,72.07
2022-10-16T21:11:39.364Z,72.41
2022-10-16T21:14:09.237Z,72.39
2022-10-16T21:16:38.239Z,72.56
2022-10-16T21:19:06.681Z,72.47
2022-10-16T21:21:37.917Z,72.50
2022-10-16T21:24:09.899Z,72.45
2022-10-16T21:26:42.053Z,72.50
2022-10-16T21:29:10.543Z,72.70
2022-10-16T21:31:39.021Z,72.48
2022-10-16T21:34:07.451Z,72.50
2022-10-16T21:36:38.573Z,72.52
2022-10-16T21:39:09.074Z,72.31
2022-10-16T21:41:38.485Z,72.44
2022-10-16T21:44:10.479Z,72.40
2022-10-16T21:46:40.925Z,72.62
2022-10-16T21:49:13.003Z,72.79
2022-10-16T21:51:43.092Z,73.02
2022-10-16T21:54:13.789Z,72.90
2022-10-16T21:56:42.218Z,72.84
2022-10-16T21:59:13.278Z,72.82
2022-10-16T22:01:42.584Z,72.89
2022-10-16T22:04:12.135Z,72.82
2022-10-16T22:06:41.204Z,73.00
2022-10-16T22:09:12.713Z,73.26
2022-10-16T22:11:42.235Z,73.20
2022-10-16T22:14:14.464Z,73.37
2022-10-16T22:16:43.285Z,73.66
2022-10-16T22:19:13.380Z,73.68
2022-10-16T22:21:43.443Z,73.55
2022-10-16T22:24:12.007Z,73.62
2022-10-16T22:26:40.663Z,73.61
2022-10-16T22:29:09.692Z,73.34
2022-10-16T22:31:40.405Z,73.29
2022-10-16T22:34:09.065Z,73.38
2022-10-16T22:36:37.514Z,73.18
2022-10-16T22:39:05.991Z,73.14
2022-10-16T22:41:34.387Z,73.35
2022-10-16T22:44:02.772Z,73.19
2022-10-16T22:46:32.157Z,73.18
2022-10-16T22:49:02.080Z,73.45
2022-10-16T22:51:30.823Z,73.47
2022-10-16T22:53:59.491Z,73.41
2022-10-16T22:56:27.982Z,73.54
2022-10-16T22:58:56.368Z,73.67
2022-10-16T23:01:27.955Z,73.76
2022-10-16T23:03:57.180Z,73.97
2022-10-16T23:06:26.980Z,73.65
2022-10-16T23:08:56.514Z,73.59
2022-10-16T23:11:24.903Z,73.64
2022-10-16T23:13:53.407Z,73.55
2022-10-16T23:16:23.872Z,73.45
2022-10-16T23:18:52.535Z,73.53
2022-10-16T23:21:27.018Z,73.42
2022-10-16T23:23:55.722Z,73.15
2022-10-16T23:26:25.927Z,73.36
2022-10-16T23:28:56.644Z,73.57
2022-10-16T23:31:25.523Z,73.57
2022-10-16T23:33:53.913Z,73.56
2022-10-16T23:36:22.967Z,73.78
2022-10-16T23:38:53.663Z,73.74
2022-10-16T23:41:22.543Z,73.72
2022-10-16T23:43:51.360Z,74.03
2022-10-16T23:46:19.865Z,74.07
2022-10-16T23:48:48.276Z,73.90
2022-10-16T23:51:16.636Z,74.01
2022-10-16T23:53:44.997Z,74.04
2022-10-16T23:56:15.399Z,73.80
2022-10-16T23:58:43.784Z,73.92
